createdAt,value
2023-04-12T00:01:20.320Z,5.30
2023-04-12T00:03:51.814Z,5.40
2023-04-12T00:06:25.272Z,5.50
2023-04-12T00:08:54.562Z,5.40
2023-04-12T00:11:22.678Z,5.50
2023-04-12T00:13:52.056Z,6.20
2023-04-12T00:16:21.352Z,5.60
2023-04-12T00:18:52.771Z,5.60
2023-04-12T00:21:23.974Z,5.20
2023-04-12T00:23:55.808Z,6.90
2023-04-12T00:26:25.128Z,5.60
2023-04-12T00:28:58.213Z,5.90
2023-04-12T00:31:27.753Z,5.70
2023-04-12T00:33:58.609Z,5.60
2023-04-12T00:36:28.551Z,5.80
2023-04-12T00:38:58.144Z,5.70
2023-04-12T00:41:28.175Z,5.40
2023-04-12T00:43:59.229Z,6.00
2023-04-12T00:46:29.488Z,5.90
2023-04-12T00:48:58.197Z,6.90
2023-04-12T00:51:27.545Z,5.90
2023-04-12T00:53:58.745Z,6.00
2023-04-12T00:56:28.436Z,6.00
2023-04-12T00:58:59.481Z,6.00
2023-04-12T01:01:28.202Z,7.20
2023-04-12T01:04:02.180Z,6.10
2023-04-12T01:06:41.825Z,6.10
2023-04-12T01:09:23.267Z,6.10
2023-04-12T01:12:00.267Z,4.60
2023-04-12T01:14:36.668Z,6.20
2023-04-12T01:17:08.793Z,5.70
2023-04-12T01:19:53.772Z,6.60
2023-04-12T01:22:46.172Z,6.60
2023-04-12T01:25:32.521Z,5.80
2023-04-12T01:28:07.401Z,6.30
2023-04-12T01:30:35.496Z,6.30
2023-04-12T01:33:07.295Z,6.40
2023-04-12T01:35:39.079Z,6.30
2023-04-12T01:38:11.835Z,6.40
2023-04-12T01:40:42.609Z,6.40
2023-04-12T01:43:16.001Z,6.40
2023-04-12T01:45:45.383Z,6.50
2023-04-12T01:48:15.237Z,6.80
2023-04-12T01:50:50.862Z,6.70
2023-04-12T01:53:23.649Z,6.80
2023-04-12T01:55:55.679Z,6.80
2023-04-12T01:58:26.329Z,7.00
2023-04-12T02:00:55.834Z,7.20
2023-04-12T02:03:24.362Z,7.00
2023-04-12T02:05:53.138Z,7.10
2023-04-12T02:08:22.714Z,7.10
2023-04-12T02:10:51.308Z,7.00
2023-04-12T02:13:19.337Z,7.00
2023-04-12T02:15:50.242Z,7.10
2023-04-12T02:18:18.340Z,6.90
2023-04-12T02:20:46.586Z,7.10
2023-04-12T02:23:15.822Z,7.20
2023-04-12T02:25:46.605Z,7.20
2023-04-12T02:28:16.411Z,7.20
2023-04-12T02:30:45.737Z,7.20
2023-04-12T02:33:15.778Z,7.20
2023-04-12T02:35:45.672Z,7.30
2023-04-12T02:38:18.671Z,7.30
2023-04-12T02:40:47.981Z,7.70
2023-04-12T02:43:19.247Z,7.40
2023-04-12T02:45:51.902Z,7.60
2023-04-12T02:48:22.552Z,7.50
2023-04-12T02:50:52.626Z,7.40
2023-04-12T02:53:24.287Z,7.00
2023-04-12T02:56:09.618Z,7.40
2023-04-12T02:58:40.089Z,7.30
2023-04-12T03:01:13.120Z,7.40
2023-04-12T03:04:04.028Z,7.20
2023-04-12T03:06:53.720Z,7.20
2023-04-12T03:09:32.203Z,7.10
2023-04-12T03:12:01.987Z,7.00
2023-04-12T03:14:35.216Z,7.10
2023-04-12T03:17:06.620Z,7.00
2023-04-12T03:19:38.769Z,6.80
2023-04-12T03:22:07.239Z,6.80
2023-04-12T03:24:42.999Z,6.90
2023-04-12T03:27:15.121Z,7.00
2023-04-12T03:29:44.929Z,6.90
2023-04-12T03:32:15.571Z,6.80
2023-04-12T03:34:47.524Z,6.80
2023-04-12T03:37:21.735Z,8.20
2023-04-12T03:39:51.260Z,6.50
2023-04-12T03:42:33.161Z,6.40
2023-04-12T03:45:12.290Z,6.40
2023-04-12T03:47:44.907Z,5.10
2023-04-12T03:50:16.841Z,6.20
2023-04-12T03:52:53.713Z,6.20
2023-04-12T03:55:22.100Z,6.20
2023-04-12T03:57:54.019Z,6.30
2023-04-12T04:00:24.838Z,6.10
2023-04-12T04:03:06.115Z,6.10
2023-04-12T04:05:43.029Z,6.10
2023-04-12T04:08:11.729Z,6.10
2023-04-12T04:10:54.370Z,6.00
2023-04-12T04:13:28.755Z,6.10
2023-04-12T04:16:06.371Z,7.80
2023-04-12T04:18:36.119Z,6.20
2023-04-12T04:21:09.324Z,6.30
2023-04-12T04:23:40.801Z,6.20
2023-04-12T04:26:10.849Z,6.20
2023-04-12T04:28:48.820Z,6.30
2023-04-12T04:31:22.314Z,7.40
2023-04-12T04:33:51.851Z,7.00
2023-04-12T04:36:26.720Z,6.40
2023-04-12T04:38:58.381Z,5.40
2023-04-12T04:41:39.794Z,6.50
2023-04-12T04:44:14.549Z,6.60
2023-04-12T04:46:52.915Z,6.60
2023-04-12T04:49:22.362Z,6.70
2023-04-12T04:51:51.864Z,6.80
2023-04-12T04:54:22.416Z,6.80
2023-04-12T04:56:50.597Z,7.40
2023-04-12T04:59:21.520Z,7.00
2023-04-12T05:01:49.874Z,7.00
2023-04-12T05:04:19.609Z,7.00
2023-04-12T05:06:50.155Z,7.10
2023-04-12T05:09:24.769Z,5.60
2023-04-12T05:11:58.572Z,8.60
2023-04-12T05:14:37.697Z,6.70
2023-04-12T05:17:14.189Z,8.00
2023-04-12T05:19:43.852Z,7.70
2023-04-12T05:22:14.270Z,7.60
2023-04-12T05:24:44.974Z,8.00
2023-04-12T05:27:13.072Z,7.80
2023-04-12T05:29:41.592Z,7.10
2023-04-12T05:32:10.507Z,8.00
2023-04-12T05:34:39.815Z,8.00
2023-04-12T05:37:10.912Z,9.00
2023-04-12T05:39:40.506Z,7.50
2023-04-12T05:42:14.012Z,8.00
2023-04-12T05:44:46.104Z,8.10
2023-04-12T05:47:17.345Z,8.00
2023-04-12T05:49:45.781Z,9.30
2023-04-12T05:52:13.881Z,8.10
2023-04-12T05:54:43.436Z,8.00
2023-04-12T05:57:17.765Z,9.60
2023-04-12T05:59:49.546Z,8.10
2023-04-12T06:02:19.644Z,8.10
2023-04-12T06:04:51.283Z,8.20
2023-04-12T06:07:22.217Z,8.30
2023-04-12T06:09:51.626Z,8.20
2023-04-12T06:12:23.414Z,8.30
2023-04-12T06:14:52.869Z,8.40
2023-04-12T06:17:23.550Z,8.40
2023-04-12T06:19:52.959Z,8.20
2023-04-12T06:22:23.635Z,8.50
2023-04-12T06:24:53.180Z,8.60
2023-04-12T06:27:27.452Z,8.70
2023-04-12T06:29:55.801Z,8.60
2023-04-12T06:32:27.197Z,8.70
2023-04-12T06:34:56.911Z,8.70
2023-04-12T06:37:26.214Z,8.70
2023-04-12T06:39:55.460Z,8.80
2023-04-12T06:42:27.434Z,8.90
2023-04-12T06:44:57.056Z,9.10
2023-04-12T06:47:27.645Z,9.20
2023-04-12T06:49:58.091Z,8.80
2023-04-12T06:52:27.811Z,9.10
2023-04-12T06:54:57.273Z,9.10
2023-04-12T06:57:26.670Z,9.00
2023-04-12T06:59:54.850Z,8.90
2023-04-12T07:02:24.449Z,10.00
2023-04-12T07:04:54.487Z,8.60
2023-04-12T07:07:25.481Z,8.50
2023-04-12T07:09:53.531Z,8.40
2023-04-12T07:12:24.917Z,8.30
2023-04-12T07:14:55.536Z,8.40
2023-04-12T07:17:25.033Z,8.20
2023-04-12T07:19:53.407Z,7.60
2023-04-12T07:22:22.916Z,7.80
2023-04-12T07:24:51.679Z,7.80
2023-04-12T07:27:21.017Z,7.80
2023-04-12T07:29:49.112Z,7.70
2023-04-12T07:32:18.517Z,6.70
2023-04-12T07:34:46.739Z,7.60
2023-04-12T07:37:19.061Z,8.90
2023-04-12T07:39:48.344Z,7.70
2023-04-12T07:42:19.724Z,8.10
2023-04-12T07:44:48.223Z,7.50
2023-04-12T07:47:19.174Z,7.40
2023-04-12T07:49:48.811Z,9.10
2023-04-12T07:52:18.242Z,7.50
2023-04-12T07:54:47.799Z,7.50
2023-04-12T07:57:18.347Z,8.50
2023-04-12T07:59:47.672Z,7.50
2023-04-12T08:02:20.607Z,7.50
2023-04-12T08:04:50.298Z,7.40
2023-04-12T08:07:19.827Z,7.50
2023-04-12T08:09:49.709Z,7.50
2023-04-12T08:12:21.987Z,7.40
2023-04-12T08:14:50.178Z,7.50
2023-04-12T08:17:18.315Z,7.50
2023-04-12T08:19:46.411Z,6.30
2023-04-12T08:22:18.179Z,8.80
2023-04-12T08:24:46.445Z,8.30
2023-04-12T08:27:14.770Z,8.90
2023-04-12T08:29:44.981Z,8.10
2023-04-12T08:32:14.810Z,8.90
2023-04-12T08:34:46.042Z,8.20
2023-04-12T08:37:15.543Z,8.20
2023-04-12T08:39:46.430Z,8.20
2023-04-12T08:42:16.341Z,9.80
2023-04-12T08:44:45.864Z,7.60
2023-04-12T08:47:16.464Z,9.30
2023-04-12T08:49:46.208Z,8.30
2023-04-12T08:52:15.697Z,8.60
2023-04-12T08:54:43.885Z,8.10
2023-04-12T08:57:14.910Z,8.10
2023-04-12T08:59:44.927Z,8.20
2023-04-12T09:02:16.847Z,8.30
2023-04-12T09:04:50.402Z,8.40
2023-04-12T09:07:21.236Z,8.40
2023-04-12T09:09:49.318Z,8.40
2023-04-12T09:12:20.561Z,8.70
2023-04-12T09:14:50.153Z,9.00
2023-04-12T09:17:26.292Z,9.20
2023-04-12T09:19:56.388Z,9.20
2023-04-12T09:22:36.569Z,9.20
2023-04-12T09:25:05.194Z,9.20
2023-04-12T09:27:48.934Z,9.30
2023-04-12T09:30:20.137Z,9.40
2023-04-12T09:32:51.556Z,9.50
2023-04-12T09:35:34.242Z,9.60
2023-04-12T09:38:08.559Z,9.50
2023-04-12T09:40:37.086Z,8.00
2023-04-12T09:43:09.041Z,9.50
2023-04-12T09:45:39.615Z,9.40
2023-04-12T09:48:19.862Z,9.30
2023-04-12T09:50:49.610Z,9.50
2023-04-12T09:53:20.610Z,9.80
2023-04-12T09:55:49.922Z,9.90
2023-04-12T09:58:21.307Z,10.10
2023-04-12T10:00:50.277Z,10.00
2023-04-12T10:03:20.932Z,10.90
2023-04-12T10:05:50.366Z,11.70
2023-04-12T10:08:20.084Z,10.00
2023-04-12T10:10:48.563Z,9.90
2023-04-12T10:13:17.568Z,10.00
2023-04-12T10:15:48.312Z,10.00
2023-04-12T10:18:17.279Z,11.20
2023-04-12T10:20:47.097Z,9.90
2023-04-12T10:23:21.200Z,9.90
2023-04-12T10:25:49.476Z,10.30
2023-04-12T10:28:20.036Z,9.80
2023-04-12T10:30:53.245Z,9.60
2023-04-12T10:33:27.463Z,9.40
2023-04-12T10:36:03.056Z,9.40
2023-04-12T10:38:47.058Z,9.20
2023-04-12T10:41:20.263Z,9.10
2023-04-12T10:43:50.675Z,9.10
2023-04-12T10:46:53.586Z,9.30
2023-04-12T10:49:25.284Z,9.20
2023-04-12T10:52:13.735Z,10.40
2023-04-12T10:54:43.273Z,9.40
2023-04-12T10:57:43.561Z,9.60
2023-04-12T11:00:12.836Z,9.70
2023-04-12T11:03:12.463Z,10.00
2023-04-12T11:06:09.220Z,10.10
2023-04-12T11:09:21.862Z,10.30
2023-04-12T11:11:50.194Z,10.50
2023-04-12T11:14:20.103Z,10.50
2023-04-12T11:17:21.721Z,10.30
2023-04-12T11:19:55.382Z,9.00
2023-04-12T11:22:26.199Z,10.20
2023-04-12T11:24:58.127Z,10.30
2023-04-12T11:27:29.254Z,10.20
2023-04-12T11:29:59.653Z,10.30
2023-04-12T11:32:30.420Z,10.60
2023-04-12T11:35:01.168Z,10.20
2023-04-12T11:37:34.523Z,10.30
2023-04-12T11:40:06.126Z,10.20
2023-04-12T11:42:34.581Z,10.30
2023-04-12T11:45:10.709Z,10.30
2023-04-12T11:47:45.248Z,10.20
2023-04-12T11:50:29.250Z,10.30
2023-04-12T11:53:11.147Z,10.20
2023-04-12T11:55:40.524Z,10.40
2023-04-12T11:58:11.054Z,10.80
2023-04-12T12:00:42.514Z,10.70
2023-04-12T12:03:12.284Z,10.90
2023-04-12T12:05:43.123Z,11.20
2023-04-12T12:08:14.192Z,12.40
2023-04-12T12:10:55.616Z,11.50
2023-04-12T12:13:45.201Z,11.50
2023-04-12T12:16:13.407Z,11.30
2023-04-12T12:18:42.878Z,11.30
2023-04-12T12:21:15.482Z,11.10
2023-04-12T12:23:46.376Z,11.00
2023-04-12T12:26:21.955Z,10.70
2023-04-12T12:28:53.949Z,10.60
2023-04-12T12:31:24.685Z,10.60
2023-04-12T12:33:57.889Z,10.50
2023-04-12T12:36:35.121Z,10.50
2023-04-12T12:39:07.795Z,10.40
2023-04-12T12:41:36.226Z,10.40
2023-04-12T12:44:06.885Z,10.40
2023-04-12T12:49:08.694Z,10.20
2023-04-12T12:51:39.317Z,10.10
2023-04-12T12:54:08.679Z,10.10
2023-04-12T12:56:38.184Z,10.00
2023-04-12T12:59:08.741Z,10.00
2023-04-12T13:01:38.142Z,10.10
2023-04-12T13:04:07.584Z,10.10
2023-04-12T13:06:36.070Z,10.20
2023-04-12T13:09:09.227Z,10.30
2023-04-12T13:11:38.656Z,10.40
2023-04-12T13:14:09.119Z,10.50
2023-04-12T13:16:38.486Z,10.70
2023-04-12T13:19:09.004Z,11.90
2023-04-12T13:21:38.293Z,10.80
2023-04-12T13:24:09.400Z,10.80
2023-04-12T13:26:39.055Z,10.90
2023-04-12T13:29:08.606Z,11.00
2023-04-12T13:31:36.728Z,11.00
2023-04-12T13:34:06.111Z,12.40
2023-04-12T13:36:35.539Z,15.10
2023-04-12T13:39:06.096Z,10.90
2023-04-12T13:41:36.819Z,10.90
2023-04-12T13:44:05.348Z,10.90
2023-04-12T13:46:33.450Z,10.90
2023-04-12T13:49:03.045Z,10.80
2023-04-12T13:51:32.612Z,10.20
2023-04-12T13:54:02.074Z,10.40
2023-04-12T13:56:31.354Z,10.30
2023-04-12T13:59:02.433Z,10.20
2023-04-12T14:01:30.691Z,9.90
2023-04-12T14:03:59.935Z,10.20
2023-04-12T14:06:27.992Z,10.20
2023-04-12T14:08:56.270Z,10.30
2023-04-12T14:11:24.953Z,10.30
2023-04-12T14:13:54.581Z,10.30
2023-04-12T14:16:23.994Z,10.30
2023-04-12T14:18:53.627Z,10.40
2023-04-12T14:21:22.743Z,10.60
2023-04-12T14:23:52.084Z,10.70
2023-04-12T14:26:21.427Z,9.90
2023-04-12T14:28:50.218Z,11.20
2023-04-12T14:31:18.411Z,11.50
2023-04-12T14:33:49.155Z,11.90
2023-04-12T14:36:17.216Z,12.20
2023-04-12T14:38:46.796Z,13.50
2023-04-12T14:41:17.002Z,12.40
2023-04-12T14:43:47.037Z,12.30
2023-04-12T14:46:17.669Z,12.10
2023-04-12T14:48:48.323Z,12.10
2023-04-12T14:51:17.563Z,14.00
2023-04-12T14:53:47.738Z,11.90
2023-04-12T14:56:23.280Z,11.90
2023-04-12T14:58:54.997Z,11.90
2023-04-12T15:01:25.267Z,11.60
2023-04-12T15:03:58.498Z,11.40
2023-04-12T15:06:33.641Z,11.20
2023-04-12T15:09:03.596Z,11.10
2023-04-12T15:11:35.598Z,11.00
2023-04-12T15:14:05.576Z,10.90
2023-04-12T15:16:35.986Z,10.90
2023-04-12T15:19:15.090Z,12.10
2023-04-12T15:21:51.300Z,10.80
2023-04-12T15:24:21.084Z,10.80
2023-04-12T15:26:51.553Z,10.80
2023-04-12T15:29:22.933Z,10.70
2023-04-12T15:31:53.238Z,10.70
2023-04-12T15:34:26.451Z,10.70
2023-04-12T15:36:56.175Z,10.60
2023-04-12T15:39:25.544Z,10.60
2023-04-12T15:41:54.850Z,10.50
2023-04-12T15:44:26.397Z,10.40
2023-04-12T15:47:09.820Z,10.60
2023-04-12T15:49:42.170Z,10.40
2023-04-12T15:52:12.947Z,10.50
2023-04-12T15:54:43.923Z,10.70
2023-04-12T15:57:12.275Z,10.70
2023-04-12T15:59:43.658Z,10.70
2023-04-12T16:02:11.789Z,10.60
2023-04-12T16:04:41.908Z,10.70
2023-04-12T16:07:14.727Z,10.90
2023-04-12T16:09:44.063Z,11.10
2023-04-12T16:12:13.335Z,11.20
2023-04-12T16:14:44.585Z,11.30
2023-04-12T16:17:14.100Z,11.30
2023-04-12T16:19:44.921Z,11.30
2023-04-12T16:22:16.092Z,11.20
2023-04-12T16:24:45.758Z,10.80
2023-04-12T16:27:14.142Z,11.00
2023-04-12T16:29:44.961Z,10.80
2023-04-12T16:32:14.309Z,10.70
2023-04-12T16:34:45.824Z,10.50
2023-04-12T16:37:16.815Z,10.40
2023-04-12T16:39:48.887Z,10.20
2023-04-12T16:42:17.299Z,9.80
2023-04-12T16:44:48.076Z,8.80
2023-04-12T16:47:16.404Z,9.00
2023-04-12T16:49:45.793Z,8.80
2023-04-12T16:52:16.522Z,8.70
2023-04-12T16:54:46.227Z,8.50
2023-04-12T16:57:14.389Z,8.50
2023-04-12T16:59:44.941Z,8.40
2023-04-12T17:02:13.102Z,8.30
2023-04-12T17:04:43.665Z,9.50
2023-04-12T17:07:11.814Z,8.00
2023-04-12T17:09:43.644Z,7.70
2023-04-12T17:12:12.949Z,7.80
2023-04-12T17:14:42.343Z,7.60
2023-04-12T17:17:10.414Z,8.40
2023-04-12T17:19:38.709Z,7.40
2023-04-12T17:22:06.766Z,7.20
2023-04-12T17:24:35.991Z,7.10
2023-04-12T17:27:05.396Z,5.60
2023-04-12T17:29:35.914Z,6.90
2023-04-12T17:32:05.174Z,6.90
2023-04-12T17:34:35.100Z,7.00
2023-04-12T17:37:04.352Z,7.00
2023-04-12T17:39:33.848Z,7.00
2023-04-12T17:42:03.257Z,8.00
2023-04-12T17:44:34.206Z,8.60
2023-04-12T17:47:03.496Z,6.90
2023-04-12T17:49:34.007Z,6.90
2023-04-12T17:52:02.073Z,6.80
2023-04-12T17:54:33.132Z,7.40
2023-04-12T17:57:01.911Z,6.90
2023-04-12T17:59:31.289Z,6.70
2023-04-12T18:02:02.206Z,5.20
2023-04-12T18:04:32.054Z,7.50
2023-04-12T18:07:00.223Z,7.70
2023-04-12T18:09:29.552Z,6.70
2023-04-12T18:11:59.688Z,6.60
2023-04-12T18:14:29.845Z,6.40
2023-04-12T18:16:58.127Z,6.40
2023-04-12T18:19:29.955Z,6.30
2023-04-12T18:22:00.360Z,6.50
2023-04-12T18:24:30.980Z,6.10
2023-04-12T18:27:00.155Z,10.30
2023-04-12T18:29:29.560Z,6.80
2023-04-12T18:31:58.864Z,6.10
2023-04-12T18:34:30.840Z,6.10
2023-04-12T18:37:00.263Z,6.00
2023-04-12T18:39:28.303Z,5.90
2023-04-12T18:41:57.115Z,6.00
2023-04-12T18:44:26.482Z,7.00
2023-04-12T18:46:56.103Z,5.50
2023-04-12T18:49:24.293Z,5.30
2023-04-12T18:51:58.129Z,5.20
2023-04-12T18:54:28.977Z,5.10
2023-04-12T18:57:00.979Z,5.00
2023-04-12T18:59:30.962Z,3.60
2023-04-12T19:01:59.208Z,4.90
2023-04-12T19:04:28.523Z,4.80
2023-04-12T19:06:58.095Z,6.00
2023-04-12T19:09:28.574Z,5.30
2023-04-12T19:11:56.953Z,4.70
2023-04-12T19:14:26.716Z,4.60
2023-04-12T19:16:56.153Z,4.70
2023-04-12T19:19:25.368Z,5.80
2023-04-12T19:21:54.756Z,4.50
2023-04-12T19:24:26.697Z,4.50
2023-04-12T19:26:54.819Z,4.30
2023-04-12T19:29:24.367Z,4.50
2023-04-12T19:31:54.218Z,4.60
2023-04-12T19:34:24.302Z,4.60
2023-04-12T19:36:52.299Z,4.50
2023-04-12T19:39:23.270Z,4.50
2023-04-12T19:41:52.680Z,4.50
2023-04-12T19:44:24.408Z,4.30
2023-04-12T19:46:52.840Z,4.40
2023-04-12T19:49:23.270Z,4.30
2023-04-12T19:51:52.547Z,5.50
2023-04-12T19:54:24.656Z,5.50
2023-04-12T19:56:55.314Z,4.20
2023-04-12T19:59:27.861Z,4.10
2023-04-12T20:01:58.035Z,3.80
2023-04-12T20:04:28.600Z,4.80
2023-04-12T20:06:56.620Z,4.20
2023-04-12T20:09:27.685Z,4.20
2023-04-12T20:11:58.390Z,4.20
2023-04-12T20:14:27.717Z,4.20
2023-04-12T20:16:57.034Z,4.20
2023-04-12T20:19:27.812Z,4.50
2023-04-12T20:22:01.706Z,4.30
2023-04-12T20:24:35.534Z,4.80
2023-04-12T20:27:04.951Z,4.40
2023-04-12T20:29:37.269Z,4.50
2023-04-12T20:32:06.876Z,3.20
2023-04-12T20:34:37.712Z,4.40
2023-04-12T20:37:06.954Z,3.20
2023-04-12T20:39:36.454Z,4.70
2023-04-12T20:42:06.620Z,4.30
2023-04-12T20:44:37.235Z,4.20
2023-04-12T20:47:07.373Z,3.40
2023-04-12T20:49:36.592Z,4.10
2023-04-12T20:52:06.030Z,4.10
2023-04-12T20:54:35.542Z,4.00
2023-04-12T20:57:05.243Z,4.00
2023-04-12T20:59:37.147Z,4.00
2023-04-12T21:02:06.561Z,3.90
2023-04-12T21:04:37.459Z,3.90
2023-04-12T21:07:06.029Z,3.90
2023-04-12T21:09:35.486Z,3.80
2023-04-12T21:12:07.196Z,3.70
2023-04-12T21:14:37.756Z,5.80
2023-04-12T21:17:07.288Z,5.60
2023-04-12T21:19:40.173Z,3.50
2023-04-12T21:22:08.803Z,4.20
2023-04-12T21:24:39.448Z,3.70
2023-04-12T21:27:09.246Z,2.60
2023-04-12T21:29:41.617Z,4.00
2023-04-12T21:32:10.725Z,3.20
2023-04-12T21:34:40.186Z,3.20
2023-04-12T21:37:08.265Z,3.10
2023-04-12T21:39:40.230Z,3.00
2023-04-12T21:42:10.782Z,3.00
2023-04-12T21:44:43.842Z,2.90
2023-04-12T21:47:13.123Z,2.80
2023-04-12T21:49:42.569Z,2.70
2023-04-12T21:52:11.823Z,1.70
2023-04-12T21:54:41.369Z,2.50
2023-04-12T21:57:11.112Z,2.60
2023-04-12T21:59:42.906Z,2.40
2023-04-12T22:02:12.857Z,2.40
2023-04-12T22:04:42.480Z,2.40
2023-04-12T22:07:12.931Z,2.30
2023-04-12T22:09:43.695Z,2.20
2023-04-12T22:12:13.993Z,0.90
2023-04-12T22:14:46.642Z,2.30
2023-04-12T22:17:16.594Z,3.40
2023-04-12T22:19:45.141Z,2.30
2023-04-12T22:22:15.554Z,2.20
2023-04-12T22:24:45.266Z,2.20
2023-04-12T22:27:16.251Z,3.20
2023-04-12T22:29:45.754Z,2.10
2023-04-12T22:32:14.172Z,1.90
2023-04-12T22:34:45.067Z,1.90
2023-04-12T22:37:14.713Z,1.80
2023-04-12T22:39:45.185Z,2.20
2023-04-12T22:42:20.729Z,0.00
2023-04-12T22:44:51.017Z,1.90
2023-04-12T22:47:19.248Z,2.00
2023-04-12T22:49:51.559Z,2.00
2023-04-12T22:52:19.826Z,3.20
2023-04-12T22:54:48.134Z,1.70
2023-04-12T22:57:18.973Z,1.00
2023-04-12T22:59:48.288Z,1.90
2023-04-12T23:02:17.688Z,2.10
2023-04-12T23:04:50.268Z,1.80
2023-04-12T23:07:19.537Z,1.70
2023-04-12T23:09:47.554Z,2.10
2023-04-12T23:12:18.069Z,1.80
2023-04-12T23:14:48.516Z,1.60
2023-04-12T23:17:19.714Z,2.90
2023-04-12T23:19:50.311Z,1.60
2023-04-12T23:22:48.404Z,1.80
2023-04-12T23:25:23.293Z,1.50
2023-04-12T23:27:53.870Z,1.80
2023-04-12T23:30:27.552Z,1.60
2023-04-12T23:32:58.337Z,1.70
2023-04-12T23:35:27.704Z,1.80
2023-04-12T23:37:56.090Z,1.80
2023-04-12T23:40:27.795Z,1.70
2023-04-12T23:42:58.689Z,1.70
2023-04-12T23:45:29.253Z,1.70
2023-04-12T23:47:57.415Z,1.80
2023-04-12T23:50:26.722Z,1.70
2023-04-12T23:52:54.718Z,2.00
2023-04-12T23:55:23.972Z,2.00
2023-04-12T23:57:52.122Z,2.60
